sensor_id;sensor_type;location;lat;lon;timestamp;pressure;altitude;pressure_sealevel;temperature;humidity
15308;BME280;7755;52.208;6.964;2024-03-17T00:02:29;102016.94;;;4.61;100.00
15308;BME280;7755;52.208;6.964;2024-03-17T00:07:06;102013.53;;;4.59;100.00
15308;BME280;7755;52.208;6.964;2024-03-17T00:11:44;102020.97;;;4.57;100.00
15308;BME280;7755;52.208;6.964;2024-03-17T00:16:23;102012.22;;;4.55;100.00
15308;BME280;7755;52.208;6.964;2024-03-17T00:21:02;102009.53;;;4.55;100.00
15308;BME280;7755;52.208;6.964;2024-03-17T00:25:38;102002.09;;;4.57;100.00
15308;BME280;7755;52.208;6.964;2024-03-17T00:30:17;102001.09;;;4.58;100.00
15308;BME280;7755;52.208;6.964;2024-03-17T00:34:56;101995.69;;;4.58;100.00
15308;BME280;7755;52.208;6.964;2024-03-17T00:39:34;101997.22;;;4.60;100.00
15308;BME280;7755;52.208;6.964;2024-03-17T00:44:11;101986.28;;;4.62;100.00
15308;BME280;7755;52.208;6.964;2024-03-17T00:48:49;101981.38;;;4.65;100.00
15308;BME280;7755;52.208;6.964;2024-03-17T00:53:30;101978.50;;;4.67;100.00
15308;BME280;7755;52.208;6.964;2024-03-17T00:58:07;101972.16;;;4.68;100.00
15308;BME280;7755;52.208;6.964;2024-03-17T01:02:44;101967.75;;;4.67;100.00
15308;BME280;7755;52.208;6.964;2024-03-17T01:07:21;101961.50;;;4.66;100.00
15308;BME280;7755;52.208;6.964;2024-03-17T01:12:01;101954.44;;;4.65;100.00
15308;BME280;7755;52.208;6.964;2024-03-17T01:16:38;101951.94;;;4.64;100.00
15308;BME280;7755;52.208;6.964;2024-03-17T01:21:15;101950.59;;;4.68;100.00
15308;BME280;7755;52.208;6.964;2024-03-17T01:25:52;101945.19;;;4.68;100.00
15308;BME280;7755;52.208;6.964;2024-03-17T01:30:32;101946.38;;;4.65;100.00
15308;BME280;7755;52.208;6.964;2024-03-17T01:35:09;101945.53;;;4.65;100.00
15308;BME280;7755;52.208;6.964;2024-03-17T01:39:46;101946.53;;;4.64;100.00
15308;BME280;7755;52.208;6.964;2024-03-17T01:44:25;101940.50;;;4.62;100.00
15308;BME280;7755;52.208;6.964;2024-03-17T01:49:08;101939.81;;;4.60;100.00
15308;BME280;7755;52.208;6.964;2024-03-17T01:53:46;101933.28;;;4.54;100.00
15308;BME280;7755;52.208;6.964;2024-03-17T01:58:25;101943.72;;;4.49;100.00
15308;BME280;7755;52.208;6.964;2024-03-17T02:03:01;101941.69;;;4.43;100.00
15308;BME280;7755;52.208;6.964;2024-03-17T02:07:41;101935.13;;;4.37;100.00
15308;BME280;7755;52.208;6.964;2024-03-17T02:12:18;101944.41;;;4.35;100.00
15308;BME280;7755;52.208;6.964;2024-03-17T02:16:55;101932.63;;;4.28;100.00
15308;BME280;7755;52.208;6.964;2024-03-17T02:21:33;101937.50;;;4.24;100.00
15308;BME280;7755;52.208;6.964;2024-03-17T02:26:13;101929.06;;;4.19;100.00
15308;BME280;7755;52.208;6.964;2024-03-17T02:30:50;101922.00;;;4.18;100.00
15308;BME280;7755;52.208;6.964;2024-03-17T02:35:27;101923.19;;;4.16;100.00
15308;BME280;7755;52.208;6.964;2024-03-17T02:40:06;101925.06;;;4.15;100.00
15308;BME280;7755;52.208;6.964;2024-03-17T02:44:46;101909.41;;;4.10;100.00
15308;BME280;7755;52.208;6.964;2024-03-17T02:49:24;101915.63;;;4.03;100.00
15308;BME280;7755;52.208;6.964;2024-03-17T02:54:04;101908.56;;;3.94;100.00
15308;BME280;7755;52.208;6.964;2024-03-17T02:58:42;101897.97;;;3.84;100.00
15308;BME280;7755;52.208;6.964;2024-03-17T03:03:22;101896.44;;;3.81;100.00
15308;BME280;7755;52.208;6.964;2024-03-17T03:07:59;101893.94;;;3.80;100.00
15308;BME280;7755;52.208;6.964;2024-03-17T03:12:36;101898.78;;;3.76;100.00
15308;BME280;7755;52.208;6.964;2024-03-17T03:17:13;101904.53;;;3.73;100.00
15308;BME280;7755;52.208;6.964;2024-03-17T03:21:54;101902.97;;;3.71;100.00
15308;BME280;7755;52.208;6.964;2024-03-17T03:26:31;101908.34;;;3.71;100.00
15308;BME280;7755;52.208;6.964;2024-03-17T03:31:11;101913.06;;;3.69;100.00
15308;BME280;7755;52.208;6.964;2024-03-17T03:35:49;101915.06;;;3.59;100.00
15308;BME280;7755;52.208;6.964;2024-03-17T03:40:29;101917.06;;;3.48;100.00
15308;BME280;7755;52.208;6.964;2024-03-17T03:45:07;101915.38;;;3.47;100.00
15308;BME280;7755;52.208;6.964;2024-03-17T03:49:44;101906.13;;;3.50;100.00
15308;BME280;7755;52.208;6.964;2024-03-17T03:54:21;101909.00;;;3.48;100.00
15308;BME280;7755;52.208;6.964;2024-03-17T03:59:01;101917.06;;;3.48;100.00
15308;BME280;7755;52.208;6.964;2024-03-17T04:03:38;101918.91;;;3.48;100.00
15308;BME280;7755;52.208;6.964;2024-03-17T04:08:15;101915.03;;;3.50;100.00
15308;BME280;7755;52.208;6.964;2024-03-17T04:12:53;101902.97;;;3.54;100.00
15308;BME280;7755;52.208;6.964;2024-03-17T04:17:33;101903.81;;;3.55;100.00
15308;BME280;7755;52.208;6.964;2024-03-17T04:22:10;101895.91;;;3.53;100.00
15308;BME280;7755;52.208;6.964;2024-03-17T04:26:47;101890.53;;;3.53;100.00
15308;BME280;7755;52.208;6.964;2024-03-17T04:31:25;101892.38;;;3.61;100.00
15308;BME280;7755;52.208;6.964;2024-03-17T04:36:05;101883.97;;;3.64;100.00
15308;BME280;7755;52.208;6.964;2024-03-17T04:40:42;101888.19;;;3.67;100.00
15308;BME280;7755;52.208;6.964;2024-03-17T04:45:24;101874.25;;;3.71;100.00
15308;BME280;7755;52.208;6.964;2024-03-17T04:50:01;101872.91;;;3.75;100.00
15308;BME280;7755;52.208;6.964;2024-03-17T04:54:43;101887.72;;;3.79;100.00
15308;BME280;7755;52.208;6.964;2024-03-17T04:59:20;101873.41;;;3.79;100.00
15308;BME280;7755;52.208;6.964;2024-03-17T05:03:57;101859.81;;;3.80;100.00
15308;BME280;7755;52.208;6.964;2024-03-17T05:08:34;101859.47;;;3.83;100.00
15308;BME280;7755;52.208;6.964;2024-03-17T05:13:14;101857.47;;;3.94;100.00
15308;BME280;7755;52.208;6.964;2024-03-17T05:17:51;101850.38;;;4.01;100.00
15308;BME280;7755;52.208;6.964;2024-03-17T05:22:28;101853.75;;;3.95;100.00
15308;BME280;7755;52.208;6.964;2024-03-17T05:27:05;101849.03;;;3.97;100.00
15308;BME280;7755;52.208;6.964;2024-03-17T05:31:45;101858.28;;;4.02;100.00
15308;BME280;7755;52.208;6.964;2024-03-17T05:36:25;101851.06;;;4.03;100.00
15308;BME280;7755;52.208;6.964;2024-03-17T05:41:03;101851.72;;;4.05;100.00
15308;BME280;7755;52.208;6.964;2024-03-17T05:45:42;101840.44;;;4.09;100.00
15308;BME280;7755;52.208;6.964;2024-03-17T05:50:22;101846.66;;;4.10;100.00
15308;BME280;7755;52.208;6.964;2024-03-17T05:54:59;101843.63;;;4.13;100.00
15308;BME280;7755;52.208;6.964;2024-03-17T05:59:39;101845.50;;;4.21;100.00
15308;BME280;7755;52.208;6.964;2024-03-17T06:04:25;101841.94;;;4.28;100.00
15308;BME280;7755;52.208;6.964;2024-03-17T06:09:05;101841.41;;;4.33;100.00
15308;BME280;7755;52.208;6.964;2024-03-17T06:13:45;101842.94;;;4.35;100.00
15308;BME280;7755;52.208;6.964;2024-03-17T06:18:22;101849.34;;;4.34;100.00
15308;BME280;7755;52.208;6.964;2024-03-17T06:22:59;101843.94;;;4.34;100.00
15308;BME280;7755;52.208;6.964;2024-03-17T06:27:39;101840.91;;;4.37;100.00
15308;BME280;7755;52.208;6.964;2024-03-17T06:32:09;101853.84;;;4.42;100.00
15308;BME280;7755;52.208;6.964;2024-03-17T06:36:47;101841.72;;;4.46;100.00
15308;BME280;7755;52.208;6.964;2024-03-17T06:41:24;101841.38;;;4.49;100.00
15308;BME280;7755;52.208;6.964;2024-03-17T06:46:05;101834.28;;;4.56;100.00
15308;BME280;7755;52.208;6.964;2024-03-17T06:50:42;101839.97;;;4.70;100.00
15308;BME280;7755;52.208;6.964;2024-03-17T06:55:19;101834.69;;;4.84;100.00
15308;BME280;7755;52.208;6.964;2024-03-17T06:59:56;101850.13;;;4.99;100.00
15308;BME280;7755;52.208;6.964;2024-03-17T07:04:38;101847.34;;;5.15;100.00
15308;BME280;7755;52.208;6.964;2024-03-17T07:09:15;101853.84;;;5.29;100.00
15308;BME280;7755;52.208;6.964;2024-03-17T07:13:52;101849.19;;;5.45;100.00
15308;BME280;7755;52.208;6.964;2024-03-17T07:18:30;101855.66;;;5.59;100.00
15308;BME280;7755;52.208;6.964;2024-03-17T07:23:13;101858.41;;;5.74;100.00
15308;BME280;7755;52.208;6.964;2024-03-17T07:27:50;101848.22;;;5.84;100.00
15308;BME280;7755;52.208;6.964;2024-03-17T07:32:27;101843.09;;;5.97;100.00
15308;BME280;7755;52.208;6.964;2024-03-17T07:37:06;101851.22;;;6.12;100.00
15308;BME280;7755;52.208;6.964;2024-03-17T07:41:47;101850.41;;;6.26;100.00
15308;BME280;7755;52.208;6.964;2024-03-17T07:46:25;101856.94;;;6.47;100.00
15308;BME280;7755;52.208;6.964;2024-03-17T07:51:04;101862.53;;;6.75;100.00
15308;BME280;7755;52.208;6.964;2024-03-17T07:55:41;101850.69;;;7.05;100.00
15308;BME280;7755;52.208;6.964;2024-03-17T08:00:22;101840.63;;;7.35;100.00
15308;BME280;7755;52.208;6.964;2024-03-17T08:04:59;101849.66;;;7.64;100.00
15308;BME280;7755;52.208;6.964;2024-03-17T08:09:36;101843.66;;;7.90;100.00
15308;BME280;7755;52.208;6.964;2024-03-17T08:14:14;101846.16;;;8.13;100.00
15308;BME280;7755;52.208;6.964;2024-03-17T08:18:54;101852.22;;;8.43;100.00
15308;BME280;7755;52.208;6.964;2024-03-17T08:23:32;101858.03;;;8.68;100.00
15308;BME280;7755;52.208;6.964;2024-03-17T08:28:10;101866.31;;;8.94;100.00
15308;BME280;7755;52.208;6.964;2024-03-17T08:32:47;101868.91;;;9.16;100.00
15308;BME280;7755;52.208;6.964;2024-03-17T08:37:30;101860.00;;;9.35;100.00
15308;BME280;7755;52.208;6.964;2024-03-17T08:42:07;101865.88;;;9.52;100.00
15308;BME280;7755;52.208;6.964;2024-03-17T08:46:45;101869.69;;;9.64;100.00
15308;BME280;7755;52.208;6.964;2024-03-17T08:51:22;101856.34;;;9.69;100.00
15308;BME280;7755;52.208;6.964;2024-03-17T08:56:03;101853.41;;;9.77;100.00
15308;BME280;7755;52.208;6.964;2024-03-17T09:00:34;101846.50;;;9.81;100.00
15308;BME280;7755;52.208;6.964;2024-03-17T09:05:11;101846.31;;;9.83;100.00
15308;BME280;7755;52.208;6.964;2024-03-17T09:09:48;101842.13;;;10.00;100.00
15308;BME280;7755;52.208;6.964;2024-03-17T09:14:29;101853.00;;;10.13;100.00
15308;BME280;7755;52.208;6.964;2024-03-17T09:19:09;101847.81;;;10.25;100.00
15308;BME280;7755;52.208;6.964;2024-03-17T09:23:46;101839.22;;;10.35;100.00
15308;BME280;7755;52.208;6.964;2024-03-17T09:28:23;101838.56;;;10.59;100.00
15308;BME280;7755;52.208;6.964;2024-03-17T09:33:03;101835.31;;;10.89;100.00
15308;BME280;7755;52.208;6.964;2024-03-17T09:37:40;101834.75;;;11.25;98.48
15308;BME280;7755;52.208;6.964;2024-03-17T09:42:18;101826.44;;;11.52;95.69
15308;BME280;7755;52.208;6.964;2024-03-17T09:46:55;101837.78;;;11.80;93.28
15308;BME280;7755;52.208;6.964;2024-03-17T09:51:39;101837.19;;;12.28;91.10
15308;BME280;7755;52.208;6.964;2024-03-17T09:56:16;101824.81;;;12.69;88.48
15308;BME280;7755;52.208;6.964;2024-03-17T10:00:53;101825.16;;;13.27;87.10
15308;BME280;7755;52.208;6.964;2024-03-17T10:05:32;101820.78;;;13.68;81.24
15308;BME280;7755;52.208;6.964;2024-03-17T10:10:14;101816.06;;;13.87;77.12
15308;BME280;7755;52.208;6.964;2024-03-17T10:14:57;101818.13;;;14.15;73.88
15308;BME280;7755;52.208;6.964;2024-03-17T10:19:35;101817.81;;;14.46;73.00
15308;BME280;7755;52.208;6.964;2024-03-17T10:24:13;101811.63;;;14.51;68.38
15308;BME280;7755;52.208;6.964;2024-03-17T10:28:53;101812.44;;;14.52;67.66
15308;BME280;7755;52.208;6.964;2024-03-17T10:33:31;101808.38;;;14.42;67.71
15308;BME280;7755;52.208;6.964;2024-03-17T10:38:14;101808.97;;;14.56;66.65
15308;BME280;7755;52.208;6.964;2024-03-17T10:42:51;101808.13;;;14.79;64.86
15308;BME280;7755;52.208;6.964;2024-03-17T10:47:31;101811.41;;;14.93;62.67
15308;BME280;7755;52.208;6.964;2024-03-17T10:52:15;101810.84;;;14.91;63.79
15308;BME280;7755;52.208;6.964;2024-03-17T10:56:54;101811.69;;;14.80;62.56
15308;BME280;7755;52.208;6.964;2024-03-17T11:01:31;101798.16;;;14.61;61.25
15308;BME280;7755;52.208;6.964;2024-03-17T11:06:11;101794.94;;;14.41;62.31
15308;BME280;7755;52.208;6.964;2024-03-17T11:10:49;101803.00;;;14.01;62.67
15308;BME280;7755;52.208;6.964;2024-03-17T11:15:37;101803.28;;;14.11;64.32
15308;BME280;7755;52.208;6.964;2024-03-17T11:20:15;101788.63;;;13.93;62.71
15308;BME280;7755;52.208;6.964;2024-03-17T11:25:36;101798.50;;;13.83;64.58
15308;BME280;7755;52.208;6.964;2024-03-17T11:30:43;101799.28;;;13.72;65.12
15308;BME280;7755;52.208;6.964;2024-03-17T11:35:32;101792.00;;;13.54;63.33
15308;BME280;7755;52.208;6.964;2024-03-17T11:40:23;101786.50;;;13.42;63.27
15308;BME280;7755;52.208;6.964;2024-03-17T11:45:05;101784.41;;;13.26;63.51
15308;BME280;7755;52.208;6.964;2024-03-17T11:49:44;101787.09;;;13.14;64.26
15308;BME280;7755;52.208;6.964;2024-03-17T11:54:24;101794.00;;;12.98;64.74
15308;BME280;7755;52.208;6.964;2024-03-17T11:59:07;101783.91;;;12.99;66.29
15308;BME280;7755;52.208;6.964;2024-03-17T12:03:45;101772.72;;;12.89;65.48
15308;BME280;7755;52.208;6.964;2024-03-17T12:08:25;101765.91;;;12.79;66.18
15308;BME280;7755;52.208;6.964;2024-03-17T12:13:02;101749.59;;;12.73;65.65
15308;BME280;7755;52.208;6.964;2024-03-17T12:17:42;101741.41;;;12.73;66.46
15308;BME280;7755;52.208;6.964;2024-03-17T12:22:20;101735.94;;;12.91;68.77
15308;BME280;7755;52.208;6.964;2024-03-17T12:27:05;101727.03;;;13.14;67.90
15308;BME280;7755;52.208;6.964;2024-03-17T12:31:42;101734.28;;;13.20;65.89
15308;BME280;7755;52.208;6.964;2024-03-17T12:36:22;101729.88;;;13.19;64.70
15308;BME280;7755;52.208;6.964;2024-03-17T12:40:59;101725.72;;;13.17;66.01
15308;BME280;7755;52.208;6.964;2024-03-17T12:45:37;101719.59;;;13.21;66.65
15308;BME280;7755;52.208;6.964;2024-03-17T12:50:14;101720.53;;;13.27;66.68
15308;BME280;7755;52.208;6.964;2024-03-17T12:55:01;101710.91;;;13.24;66.13
15308;BME280;7755;52.208;6.964;2024-03-17T12:59:51;101706.53;;;13.23;66.18
15308;BME280;7755;52.208;6.964;2024-03-17T13:04:41;101700.47;;;13.33;66.70
15308;BME280;7755;52.208;6.964;2024-03-17T13:09:18;101687.56;;;13.40;63.86
15308;BME280;7755;52.208;6.964;2024-03-17T13:14:00;101688.16;;;13.54;63.55
15308;BME280;7755;52.208;6.964;2024-03-17T13:18:42;101681.88;;;13.65;63.47
15308;BME280;7755;52.208;6.964;2024-03-17T13:23:19;101672.00;;;13.87;63.19
15308;BME280;7755;52.208;6.964;2024-03-17T13:27:57;101663.69;;;13.94;63.60
15308;BME280;7755;52.208;6.964;2024-03-17T13:32:37;101654.66;;;13.93;63.56
15308;BME280;7755;52.208;6.964;2024-03-17T13:37:15;101647.31;;;13.71;61.23
15308;BME280;7755;52.208;6.964;2024-03-17T13:41:52;101638.16;;;13.77;60.84
15308;BME280;7755;52.208;6.964;2024-03-17T13:46:31;101640.06;;;13.64;61.12
15308;BME280;7755;52.208;6.964;2024-03-17T13:51:11;101633.53;;;13.65;63.60
15308;BME280;7755;52.208;6.964;2024-03-17T13:55:48;101626.88;;;13.73;63.12
15308;BME280;7755;52.208;6.964;2024-03-17T14:00:26;101622.47;;;13.72;64.28
15308;BME280;7755;52.208;6.964;2024-03-17T14:05:11;101622.47;;;13.72;64.69
15308;BME280;7755;52.208;6.964;2024-03-17T14:09:51;101617.00;;;13.60;64.80
15308;BME280;7755;52.208;6.964;2024-03-17T14:14:29;101607.38;;;13.46;64.93
15308;BME280;7755;52.208;6.964;2024-03-17T14:19:06;101607.63;;;13.33;66.24
15308;BME280;7755;52.208;6.964;2024-03-17T14:23:43;101608.44;;;13.33;68.06
15308;BME280;7755;52.208;6.964;2024-03-17T14:28:23;101598.59;;;13.32;68.67
15308;BME280;7755;52.208;6.964;2024-03-17T14:33:00;101595.88;;;13.32;68.18
15308;BME280;7755;52.208;6.964;2024-03-17T14:37:38;101589.22;;;13.28;67.57
15308;BME280;7755;52.208;6.964;2024-03-17T14:42:19;101580.22;;;13.28;68.35
15308;BME280;7755;52.208;6.964;2024-03-17T14:46:59;101574.50;;;13.29;69.99
15308;BME280;7755;52.208;6.964;2024-03-17T14:51:38;101571.41;;;13.26;68.01
15308;BME280;7755;52.208;6.964;2024-03-17T14:56:16;101555.75;;;13.21;68.73
15308;BME280;7755;52.208;6.964;2024-03-17T15:00:53;101553.31;;;13.13;68.58
15308;BME280;7755;52.208;6.964;2024-03-17T15:05:33;101551.78;;;13.05;68.85
15308;BME280;7755;52.208;6.964;2024-03-17T15:10:10;101557.97;;;13.01;70.13
15308;BME280;7755;52.208;6.964;2024-03-17T15:14:48;101552.25;;;13.02;71.38
15308;BME280;7755;52.208;6.964;2024-03-17T15:19:25;101545.84;;;13.08;72.28
15308;BME280;7755;52.208;6.964;2024-03-17T15:24:06;101538.38;;;13.04;71.07
15308;BME280;7755;52.208;6.964;2024-03-17T15:28:43;101535.88;;;13.02;71.55
15308;BME280;7755;52.208;6.964;2024-03-17T15:33:20;101536.72;;;13.03;72.70
15308;BME280;7755;52.208;6.964;2024-03-17T15:37:57;101538.47;;;12.97;71.50
15308;BME280;7755;52.208;6.964;2024-03-17T15:42:38;101528.59;;;12.84;71.43
15308;BME280;7755;52.208;6.964;2024-03-17T15:47:16;101521.00;;;12.75;71.64
15308;BME280;7755;52.208;6.964;2024-03-17T15:51:53;101516.25;;;12.70;72.30
15308;BME280;7755;52.208;6.964;2024-03-17T15:56:31;101513.38;;;12.65;73.61
15308;BME280;7755;52.208;6.964;2024-03-17T16:01:11;101512.31;;;12.54;74.21
15308;BME280;7755;52.208;6.964;2024-03-17T16:05:49;101506.84;;;12.54;75.46
15308;BME280;7755;52.208;6.964;2024-03-17T16:10:27;101500.78;;;12.52;76.10
15308;BME280;7755;52.208;6.964;2024-03-17T16:15:06;101502.09;;;12.50;77.06
15308;BME280;7755;52.208;6.964;2024-03-17T16:19:46;101498.63;;;12.43;76.37
15308;BME280;7755;52.208;6.964;2024-03-17T16:24:25;101502.69;;;12.40;77.29
15308;BME280;7755;52.208;6.964;2024-03-17T16:29:02;101488.91;;;12.35;77.22
15308;BME280;7755;52.208;6.964;2024-03-17T16:33:42;101483.53;;;12.28;78.72
15308;BME280;7755;52.208;6.964;2024-03-17T16:38:29;101483.66;;;12.22;79.05
15308;BME280;7755;52.208;6.964;2024-03-17T16:43:06;101487.19;;;12.22;79.97
15308;BME280;7755;52.208;6.964;2024-03-17T16:47:43;101476.78;;;12.19;80.84
15308;BME280;7755;52.208;6.964;2024-03-17T16:52:20;101470.56;;;12.12;81.00
15308;BME280;7755;52.208;6.964;2024-03-17T16:57:00;101477.91;;;12.12;81.08
15308;BME280;7755;52.208;6.964;2024-03-17T17:01:41;101475.41;;;12.10;81.09
15308;BME280;7755;52.208;6.964;2024-03-17T17:06:18;101473.75;;;12.09;81.68
15308;BME280;7755;52.208;6.964;2024-03-17T17:10:55;101483.84;;;12.09;81.85
15308;BME280;7755;52.208;6.964;2024-03-17T17:15:35;101480.03;;;12.10;81.64
15308;BME280;7755;52.208;6.964;2024-03-17T17:20:12;101482.63;;;12.05;82.48
15308;BME280;7755;52.208;6.964;2024-03-17T17:24:49;101485.81;;;12.01;82.83
15308;BME280;7755;52.208;6.964;2024-03-17T17:29:33;101490.06;;;11.97;83.34
15308;BME280;7755;52.208;6.964;2024-03-17T17:34:13;101478.41;;;11.90;83.95
15308;BME280;7755;52.208;6.964;2024-03-17T17:38:51;101473.19;;;11.89;84.38
15308;BME280;7755;52.208;6.964;2024-03-17T17:43:28;101469.75;;;11.82;85.07
15308;BME280;7755;52.208;6.964;2024-03-17T17:48:07;101475.00;;;11.76;85.56
15308;BME280;7755;52.208;6.964;2024-03-17T17:52:48;101478.19;;;11.73;86.18
15308;BME280;7755;52.208;6.964;2024-03-17T17:57:26;101475.31;;;11.68;86.58
15308;BME280;7755;52.208;6.964;2024-03-17T18:02:03;101472.84;;;11.67;87.44
15308;BME280;7755;52.208;6.964;2024-03-17T18:06:40;101480.63;;;11.63;88.09
15308;BME280;7755;52.208;6.964;2024-03-17T18:11:20;101473.75;;;11.61;88.45
15308;BME280;7755;52.208;6.964;2024-03-17T18:15:57;101465.66;;;11.54;88.54
15308;BME280;7755;52.208;6.964;2024-03-17T18:20:34;101461.50;;;11.52;89.52
15308;BME280;7755;52.208;6.964;2024-03-17T18:25:11;101473.66;;;11.49;90.20
15308;BME280;7755;52.208;6.964;2024-03-17T18:29:51;101469.13;;;11.43;90.33
15308;BME280;7755;52.208;6.964;2024-03-17T18:34:22;101477.53;;;11.41;90.51
15308;BME280;7755;52.208;6.964;2024-03-17T18:39:00;101473.59;;;11.37;90.68
15308;BME280;7755;52.208;6.964;2024-03-17T18:43:38;101476.78;;;11.34;91.08
15308;BME280;7755;52.208;6.964;2024-03-17T18:48:21;101466.13;;;11.33;92.08
15308;BME280;7755;52.208;6.964;2024-03-17T18:52:58;101469.53;;;11.28;92.64
15308;BME280;7755;52.208;6.964;2024-03-17T18:57:29;101459.31;;;11.24;92.59
15308;BME280;7755;52.208;6.964;2024-03-17T19:02:07;101467.09;;;11.20;92.96
15308;BME280;7755;52.208;6.964;2024-03-17T19:06:47;101469.22;;;11.18;93.81
15308;BME280;7755;52.208;6.964;2024-03-17T19:11:24;101465.88;;;11.16;94.07
15308;BME280;7755;52.208;6.964;2024-03-17T19:16:04;101462.31;;;11.15;94.13
15308;BME280;7755;52.208;6.964;2024-03-17T19:20:45;101458.78;;;11.15;94.36
15308;BME280;7755;52.208;6.964;2024-03-17T19:25:25;101451.06;;;11.12;94.48
15308;BME280;7755;52.208;6.964;2024-03-17T19:30:02;101454.22;;;11.09;94.85
15308;BME280;7755;52.208;6.964;2024-03-17T19:34:42;101442.28;;;11.10;94.70
15308;BME280;7755;52.208;6.964;2024-03-17T19:39:20;101438.13;;;11.07;94.63
15308;BME280;7755;52.208;6.964;2024-03-17T19:44:01;101433.75;;;11.06;93.74
15308;BME280;7755;52.208;6.964;2024-03-17T19:48:40;101431.25;;;11.05;94.46
15308;BME280;7755;52.208;6.964;2024-03-17T19:53:19;101429.22;;;11.00;94.72
15308;BME280;7755;52.208;6.964;2024-03-17T19:57:57;101420.66;;;10.97;95.53
15308;BME280;7755;52.208;6.964;2024-03-17T20:02:37;101424.66;;;10.94;96.17
15308;BME280;7755;52.208;6.964;2024-03-17T20:07:14;101423.69;;;10.88;98.43
15308;BME280;7755;52.208;6.964;2024-03-17T20:11:51;101414.75;;;10.81;100.00
15308;BME280;7755;52.208;6.964;2024-03-17T20:16:29;101419.59;;;10.79;100.00
15308;BME280;7755;52.208;6.964;2024-03-17T20:21:10;101426.75;;;10.74;100.00
15308;BME280;7755;52.208;6.964;2024-03-17T20:25:47;101415.47;;;10.70;100.00
15308;BME280;7755;52.208;6.964;2024-03-17T20:30:24;101412.38;;;10.66;100.00
15308;BME280;7755;52.208;6.964;2024-03-17T20:35:03;101404.94;;;10.55;100.00
15308;BME280;7755;52.208;6.964;2024-03-17T20:39:43;101394.81;;;10.44;100.00
15308;BME280;7755;52.208;6.964;2024-03-17T20:44:21;101386.72;;;10.37;100.00
15308;BME280;7755;52.208;6.964;2024-03-17T20:48:58;101388.22;;;10.33;100.00
15308;BME280;7755;52.208;6.964;2024-03-17T20:53:35;101389.28;;;10.32;100.00
15308;BME280;7755;52.208;6.964;2024-03-17T20:58:15;101386.97;;;10.29;100.00
15308;BME280;7755;52.208;6.964;2024-03-17T21:02:53;101376.97;;;10.30;100.00
15308;BME280;7755;52.208;6.964;2024-03-17T21:07:30;101374.25;;;10.30;100.00
15308;BME280;7755;52.208;6.964;2024-03-17T21:12:07;101367.13;;;10.29;100.00
15308;BME280;7755;52.208;6.964;2024-03-17T21:16:47;101368.34;;;10.33;100.00
15308;BME280;7755;52.208;6.964;2024-03-17T21:21:25;101367.28;;;10.34;100.00
15308;BME280;7755;52.208;6.964;2024-03-17T21:26:02;101355.81;;;10.32;100.00
15308;BME280;7755;52.208;6.964;2024-03-17T21:30:39;101356.44;;;10.34;100.00
15308;BME280;7755;52.208;6.964;2024-03-17T21:35:19;101354.38;;;10.29;100.00
15308;BME280;7755;52.208;6.964;2024-03-17T21:39:56;101344.19;;;10.25;100.00
15308;BME280;7755;52.208;6.964;2024-03-17T21:44:34;101350.69;;;10.24;100.00
15308;BME280;7755;52.208;6.964;2024-03-17T21:49:12;101339.59;;;10.19;100.00
15308;BME280;7755;52.208;6.964;2024-03-17T21:53:54;101340.88;;;10.16;100.00
15308;BME280;7755;52.208;6.964;2024-03-17T21:58:24;101336.13;;;10.11;100.00
15308;BME280;7755;52.208;6.964;2024-03-17T22:03:01;101333.22;;;10.06;100.00
15308;BME280;7755;52.208;6.964;2024-03-17T22:07:38;101334.88;;;10.07;100.00
15308;BME280;7755;52.208;6.964;2024-03-17T22:12:19;101335.94;;;10.06;100.00
15308;BME280;7755;52.208;6.964;2024-03-17T22:16:56;101331.56;;;10.05;100.00
15308;BME280;7755;52.208;6.964;2024-03-17T22:21:33;101323.41;;;10.05;100.00
15308;BME280;7755;52.208;6.964;2024-03-17T22:26:10;101328.84;;;10.05;100.00
15308;BME280;7755;52.208;6.964;2024-03-17T22:30:54;101318.03;;;9.99;100.00
15308;BME280;7755;52.208;6.964;2024-03-17T22:35:31;101309.66;;;10.00;100.00
15308;BME280;7755;52.208;6.964;2024-03-17T22:40:09;101309.28;;;9.97;100.00
15308;BME280;7755;52.208;6.964;2024-03-17T22:44:46;101303.69;;;9.92;100.00
15308;BME280;7755;52.208;6.964;2024-03-17T22:49:26;101290.53;;;9.89;100.00
15308;BME280;7755;52.208;6.964;2024-03-17T22:54:03;101292.63;;;9.87;100.00
15308;BME280;7755;52.208;6.964;2024-03-17T22:58:40;101288.50;;;9.84;100.00
15308;BME280;7755;52.208;6.964;2024-03-17T23:03:18;101291.44;;;9.82;100.00
15308;BME280;7755;52.208;6.964;2024-03-17T23:07:58;101284.94;;;9.83;100.00
15308;BME280;7755;52.208;6.964;2024-03-17T23:12:35;101280.94;;;9.86;100.00
15308;BME280;7755;52.208;6.964;2024-03-17T23:17:13;101287.16;;;9.93;100.00
15308;BME280;7755;52.208;6.964;2024-03-17T23:21:53;101272.63;;;9.81;100.00
15308;BME280;7755;52.208;6.964;2024-03-17T23:26:33;101280.81;;;9.74;100.00
15308;BME280;7755;52.208;6.964;2024-03-17T23:31:10;101272.31;;;9.71;100.00
15308;BME280;7755;52.208;6.964;2024-03-17T23:35:48;101270.19;;;9.73;100.00
15308;BME280;7755;52.208;6.964;2024-03-17T23:40:26;101264.16;;;9.71;100.00
15308;BME280;7755;52.208;6.964;2024-03-17T23:45:08;101263.56;;;9.69;100.00
15308;BME280;7755;52.208;6.964;2024-03-17T23:49:45;101262.31;;;9.65;100.00
15308;BME280;7755;52.208;6.964;2024-03-17T23:54:22;101261.25;;;9.66;100.00
15308;BME280;7755;52.208;6.964;2024-03-17T23:58:59;101258.78;;;9.64;100.00
